sensor_id;sensor_type;location;lat;lon;timestamp;P1;durP1;ratioP1;P2;durP2;ratioP2
27305;SDS011;14792;50.886;6.468;2024-03-02T00:02:20;3.35;;;1.25;;
27305;SDS011;14792;50.886;6.468;2024-03-02T00:05:22;2.92;;;1.32;;
27305;SDS011;14792;50.886;6.468;2024-03-02T00:08:24;2.42;;;0.85;;
27305;SDS011;14792;50.886;6.468;2024-03-02T00:11:25;3.77;;;1.75;;
27305;SDS011;14792;50.886;6.468;2024-03-02T00:14:30;1.25;;;1.02;;
27305;SDS011;14792;50.886;6.468;2024-03-02T00:17:32;3.27;;;1.50;;
27305;SDS011;14792;50.886;6.468;2024-03-02T00:20:33;3.05;;;1.27;;
27305;SDS011;14792;50.886;6.468;2024-03-02T00:23:35;2.27;;;1.00;;
27305;SDS011;14792;50.886;6.468;2024-03-02T00:26:36;4.12;;;1.50;;
27305;SDS011;14792;50.886;6.468;2024-03-02T00:29:38;4.12;;;1.35;;
27305;SDS011;14792;50.886;6.468;2024-03-02T00:32:39;5.67;;;1.80;;
27305;SDS011;14792;50.886;6.468;2024-03-02T00:35:43;2.35;;;1.22;;
27305;SDS011;14792;50.886;6.468;2024-03-02T00:38:52;2.47;;;1.22;;
27305;SDS011;14792;50.886;6.468;2024-03-02T00:41:50;2.55;;;1.20;;
27305;SDS011;14792;50.886;6.468;2024-03-02T00:44:52;3.20;;;1.42;;
27305;SDS011;14792;50.886;6.468;2024-03-02T00:47:53;2.10;;;1.22;;
27305;SDS011;14792;50.886;6.468;2024-03-02T00:50:55;2.67;;;1.40;;
27305;SDS011;14792;50.886;6.468;2024-03-02T00:54:00;4.47;;;1.10;;
27305;SDS011;14792;50.886;6.468;2024-03-02T00:57:01;2.10;;;1.00;;
27305;SDS011;14792;50.886;6.468;2024-03-02T01:00:03;3.27;;;1.20;;
27305;SDS011;14792;50.886;6.468;2024-03-02T01:03:04;2.67;;;1.15;;
27305;SDS011;14792;50.886;6.468;2024-03-02T01:06:06;1.55;;;0.90;;
27305;SDS011;14792;50.886;6.468;2024-03-02T01:09:07;3.12;;;1.30;;
27305;SDS011;14792;50.886;6.468;2024-03-02T01:12:09;1.77;;;1.20;;
27305;SDS011;14792;50.886;6.468;2024-03-02T01:15:11;1.62;;;0.93;;
27305;SDS011;14792;50.886;6.468;2024-03-02T01:18:12;4.97;;;1.22;;
27305;SDS011;14792;50.886;6.468;2024-03-02T01:21:14;3.45;;;1.37;;
27305;SDS011;14792;50.886;6.468;2024-03-02T01:24:15;3.92;;;1.40;;
27305;SDS011;14792;50.886;6.468;2024-03-02T01:27:17;2.72;;;1.17;;
27305;SDS011;14792;50.886;6.468;2024-03-02T01:30:18;5.50;;;1.30;;
27305;SDS011;14792;50.886;6.468;2024-03-02T01:33:20;4.37;;;1.35;;
27305;SDS011;14792;50.886;6.468;2024-03-02T01:36:22;3.95;;;0.90;;
27305;SDS011;14792;50.886;6.468;2024-03-02T01:39:23;2.50;;;0.93;;
27305;SDS011;14792;50.886;6.468;2024-03-02T01:42:25;5.47;;;1.25;;
27305;SDS011;14792;50.886;6.468;2024-03-02T01:45:27;3.83;;;1.07;;
27305;SDS011;14792;50.886;6.468;2024-03-02T01:48:28;3.47;;;1.05;;
27305;SDS011;14792;50.886;6.468;2024-03-02T01:51:30;3.55;;;1.67;;
27305;SDS011;14792;50.886;6.468;2024-03-02T01:54:31;3.42;;;1.95;;
27305;SDS011;14792;50.886;6.468;2024-03-02T01:57:34;4.55;;;3.08;;
27305;SDS011;14792;50.886;6.468;2024-03-02T02:00:35;6.60;;;4.20;;
27305;SDS011;14792;50.886;6.468;2024-03-02T02:03:36;3.98;;;2.20;;
27305;SDS011;14792;50.886;6.468;2024-03-02T02:06:38;6.60;;;1.70;;
27305;SDS011;14792;50.886;6.468;2024-03-02T02:09:42;3.35;;;1.30;;
27305;SDS011;14792;50.886;6.468;2024-03-02T02:12:44;2.60;;;1.12;;
27305;SDS011;14792;50.886;6.468;2024-03-02T02:15:45;2.55;;;1.35;;
27305;SDS011;14792;50.886;6.468;2024-03-02T02:18:47;3.95;;;1.27;;
27305;SDS011;14792;50.886;6.468;2024-03-02T02:21:48;4.08;;;1.10;;
27305;SDS011;14792;50.886;6.468;2024-03-02T02:24:50;5.22;;;0.88;;
27305;SDS011;14792;50.886;6.468;2024-03-02T02:27:52;2.72;;;0.95;;
27305;SDS011;14792;50.886;6.468;2024-03-02T02:30:54;2.47;;;1.00;;
27305;SDS011;14792;50.886;6.468;2024-03-02T02:33:55;2.50;;;1.07;;
27305;SDS011;14792;50.886;6.468;2024-03-02T02:36:56;2.40;;;1.00;;
27305;SDS011;14792;50.886;6.468;2024-03-02T02:39:58;1.92;;;1.10;;
27305;SDS011;14792;50.886;6.468;2024-03-02T02:43:00;3.62;;;0.98;;
27305;SDS011;14792;50.886;6.468;2024-03-02T02:46:01;4.83;;;1.17;;
27305;SDS011;14792;50.886;6.468;2024-03-02T02:49:03;3.62;;;0.70;;
27305;SDS011;14792;50.886;6.468;2024-03-02T02:52:04;4.05;;;1.02;;
27305;SDS011;14792;50.886;6.468;2024-03-02T02:55:06;4.05;;;1.00;;
27305;SDS011;14792;50.886;6.468;2024-03-02T02:58:10;5.42;;;1.05;;
27305;SDS011;14792;50.886;6.468;2024-03-02T03:01:12;4.37;;;1.20;;
27305;SDS011;14792;50.886;6.468;2024-03-02T03:04:14;3.62;;;1.27;;
27305;SDS011;14792;50.886;6.468;2024-03-02T03:07:15;3.02;;;1.17;;
27305;SDS011;14792;50.886;6.468;2024-03-02T03:10:17;4.60;;;1.12;;
27305;SDS011;14792;50.886;6.468;2024-03-02T03:13:18;3.45;;;1.10;;
27305;SDS011;14792;50.886;6.468;2024-03-02T03:16:20;10.98;;;1.30;;
27305;SDS011;14792;50.886;6.468;2024-03-02T03:19:22;3.20;;;1.25;;
27305;SDS011;14792;50.886;6.468;2024-03-02T03:22:23;12.43;;;1.72;;
27305;SDS011;14792;50.886;6.468;2024-03-02T03:25:25;5.05;;;1.27;;
27305;SDS011;14792;50.886;6.468;2024-03-02T03:28:26;2.95;;;1.40;;
27305;SDS011;14792;50.886;6.468;2024-03-02T03:31:29;9.23;;;1.32;;
27305;SDS011;14792;50.886;6.468;2024-03-02T03:34:32;6.75;;;1.57;;
27305;SDS011;14792;50.886;6.468;2024-03-02T03:37:31;5.70;;;1.40;;
27305;SDS011;14792;50.886;6.468;2024-03-02T03:40:35;3.10;;;1.40;;
27305;SDS011;14792;50.886;6.468;2024-03-02T03:43:37;4.70;;;1.42;;
27305;SDS011;14792;50.886;6.468;2024-03-02T03:46:38;2.25;;;1.30;;
27305;SDS011;14792;50.886;6.468;2024-03-02T03:49:40;4.47;;;1.72;;
27305;SDS011;14792;50.886;6.468;2024-03-02T03:52:42;5.40;;;1.62;;
27305;SDS011;14792;50.886;6.468;2024-03-02T03:55:43;2.83;;;1.20;;
27305;SDS011;14792;50.886;6.468;2024-03-02T03:58:45;4.75;;;1.42;;
27305;SDS011;14792;50.886;6.468;2024-03-02T04:01:46;3.50;;;1.25;;
27305;SDS011;14792;50.886;6.468;2024-03-02T04:04:48;1.85;;;1.00;;
27305;SDS011;14792;50.886;6.468;2024-03-02T04:07:50;3.27;;;1.40;;
27305;SDS011;14792;50.886;6.468;2024-03-02T04:10:52;4.22;;;1.22;;
27305;SDS011;14792;50.886;6.468;2024-03-02T04:13:54;3.02;;;1.45;;
27305;SDS011;14792;50.886;6.468;2024-03-02T04:16:55;6.97;;;1.50;;
27305;SDS011;14792;50.886;6.468;2024-03-02T04:19:57;5.92;;;1.30;;
27305;SDS011;14792;50.886;6.468;2024-03-02T04:22:59;4.05;;;1.42;;
27305;SDS011;14792;50.886;6.468;2024-03-02T04:26:00;3.40;;;1.45;;
27305;SDS011;14792;50.886;6.468;2024-03-02T04:29:02;3.92;;;1.42;;
27305;SDS011;14792;50.886;6.468;2024-03-02T04:32:03;2.17;;;1.15;;
27305;SDS011;14792;50.886;6.468;2024-03-02T04:35:05;3.33;;;1.45;;
27305;SDS011;14792;50.886;6.468;2024-03-02T04:38:07;5.75;;;1.62;;
27305;SDS011;14792;50.886;6.468;2024-03-02T04:41:08;3.15;;;1.12;;
27305;SDS011;14792;50.886;6.468;2024-03-02T04:44:10;2.92;;;1.45;;
27305;SDS011;14792;50.886;6.468;2024-03-02T04:47:11;3.70;;;1.10;;
27305;SDS011;14792;50.886;6.468;2024-03-02T04:50:13;1.85;;;1.00;;
27305;SDS011;14792;50.886;6.468;2024-03-02T04:53:14;6.10;;;1.30;;
27305;SDS011;14792;50.886;6.468;2024-03-02T04:56:16;4.12;;;1.20;;
27305;SDS011;14792;50.886;6.468;2024-03-02T04:59:23;2.67;;;1.22;;
27305;SDS011;14792;50.886;6.468;2024-03-02T05:02:25;2.02;;;1.10;;
27305;SDS011;14792;50.886;6.468;2024-03-02T05:05:26;3.37;;;1.50;;
27305;SDS011;14792;50.886;6.468;2024-03-02T05:08:28;3.77;;;1.10;;
27305;SDS011;14792;50.886;6.468;2024-03-02T05:11:29;4.72;;;1.60;;
27305;SDS011;14792;50.886;6.468;2024-03-02T05:14:40;3.92;;;1.37;;
27305;SDS011;14792;50.886;6.468;2024-03-02T05:17:41;2.33;;;1.27;;
27305;SDS011;14792;50.886;6.468;2024-03-02T05:20:46;3.20;;;1.42;;
27305;SDS011;14792;50.886;6.468;2024-03-02T05:23:47;5.58;;;1.70;;
27305;SDS011;14792;50.886;6.468;2024-03-02T05:26:49;4.35;;;1.50;;
27305;SDS011;14792;50.886;6.468;2024-03-02T05:29:51;26.35;;;15.32;;
27305;SDS011;14792;50.886;6.468;2024-03-02T05:32:53;25.77;;;16.93;;
27305;SDS011;14792;50.886;6.468;2024-03-02T05:35:54;7.70;;;5.78;;
27305;SDS011;14792;50.886;6.468;2024-03-02T05:38:56;6.85;;;4.45;;
27305;SDS011;14792;50.886;6.468;2024-03-02T05:41:57;6.80;;;2.12;;
27305;SDS011;14792;50.886;6.468;2024-03-02T05:44:59;4.33;;;2.22;;
27305;SDS011;14792;50.886;6.468;2024-03-02T05:48:01;9.63;;;3.50;;
27305;SDS011;14792;50.886;6.468;2024-03-02T05:51:02;9.55;;;3.15;;
27305;SDS011;14792;50.886;6.468;2024-03-02T05:54:04;8.58;;;3.52;;
27305;SDS011;14792;50.886;6.468;2024-03-02T05:57:05;8.15;;;3.52;;
27305;SDS011;14792;50.886;6.468;2024-03-02T06:00:19;7.83;;;2.77;;
27305;SDS011;14792;50.886;6.468;2024-03-02T06:03:20;11.28;;;4.62;;
27305;SDS011;14792;50.886;6.468;2024-03-02T06:06:23;11.60;;;4.37;;
27305;SDS011;14792;50.886;6.468;2024-03-02T06:09:24;8.25;;;3.30;;
27305;SDS011;14792;50.886;6.468;2024-03-02T06:12:26;15.35;;;4.40;;
27305;SDS011;14792;50.886;6.468;2024-03-02T06:15:27;16.55;;;4.95;;
27305;SDS011;14792;50.886;6.468;2024-03-02T06:18:29;9.18;;;3.75;;
27305;SDS011;14792;50.886;6.468;2024-03-02T06:21:31;4.58;;;1.75;;
27305;SDS011;14792;50.886;6.468;2024-03-02T06:24:32;6.15;;;2.08;;
27305;SDS011;14792;50.886;6.468;2024-03-02T06:27:34;2.30;;;1.47;;
27305;SDS011;14792;50.886;6.468;2024-03-02T06:30:35;14.00;;;5.78;;
27305;SDS011;14792;50.886;6.468;2024-03-02T06:33:37;29.27;;;13.35;;
27305;SDS011;14792;50.886;6.468;2024-03-02T06:36:38;36.15;;;17.67;;
27305;SDS011;14792;50.886;6.468;2024-03-02T06:39:40;27.45;;;17.52;;
27305;SDS011;14792;50.886;6.468;2024-03-02T06:42:42;25.17;;;14.60;;
27305;SDS011;14792;50.886;6.468;2024-03-02T06:45:43;9.25;;;3.98;;
27305;SDS011;14792;50.886;6.468;2024-03-02T06:48:45;11.68;;;5.65;;
27305;SDS011;14792;50.886;6.468;2024-03-02T06:51:46;15.88;;;7.15;;
27305;SDS011;14792;50.886;6.468;2024-03-02T06:54:48;12.40;;;5.55;;
27305;SDS011;14792;50.886;6.468;2024-03-02T06:57:50;4.20;;;2.60;;
27305;SDS011;14792;50.886;6.468;2024-03-02T07:00:52;2.50;;;1.80;;
27305;SDS011;14792;50.886;6.468;2024-03-02T07:03:53;3.87;;;2.60;;
27305;SDS011;14792;50.886;6.468;2024-03-02T07:06:55;3.55;;;2.05;;
27305;SDS011;14792;50.886;6.468;2024-03-02T07:09:56;4.62;;;1.92;;
27305;SDS011;14792;50.886;6.468;2024-03-02T07:12:58;3.72;;;1.77;;
27305;SDS011;14792;50.886;6.468;2024-03-02T07:15:59;8.90;;;2.25;;
27305;SDS011;14792;50.886;6.468;2024-03-02T07:19:04;2.55;;;1.75;;
27305;SDS011;14792;50.886;6.468;2024-03-02T07:22:06;3.40;;;1.80;;
27305;SDS011;14792;50.886;6.468;2024-03-02T07:25:07;2.02;;;1.60;;
27305;SDS011;14792;50.886;6.468;2024-03-02T07:28:08;4.25;;;1.77;;
27305;SDS011;14792;50.886;6.468;2024-03-02T07:31:10;2.55;;;1.80;;
27305;SDS011;14792;50.886;6.468;2024-03-02T07:34:12;4.22;;;1.40;;
27305;SDS011;14792;50.886;6.468;2024-03-02T07:37:13;1.82;;;1.20;;
27305;SDS011;14792;50.886;6.468;2024-03-02T07:40:15;2.77;;;1.50;;
27305;SDS011;14792;50.886;6.468;2024-03-02T07:43:17;6.75;;;2.90;;
27305;SDS011;14792;50.886;6.468;2024-03-02T07:46:18;4.78;;;2.50;;
27305;SDS011;14792;50.886;6.468;2024-03-02T07:49:20;5.08;;;2.60;;
27305;SDS011;14792;50.886;6.468;2024-03-02T07:52:21;2.75;;;1.65;;
27305;SDS011;14792;50.886;6.468;2024-03-02T07:55:23;3.50;;;2.05;;
27305;SDS011;14792;50.886;6.468;2024-03-02T07:58:24;2.47;;;1.40;;
27305;SDS011;14792;50.886;6.468;2024-03-02T08:01:29;2.02;;;1.25;;
27305;SDS011;14792;50.886;6.468;2024-03-02T08:04:30;2.25;;;1.25;;
27305;SDS011;14792;50.886;6.468;2024-03-02T08:07:32;1.67;;;1.32;;
27305;SDS011;14792;50.886;6.468;2024-03-02T08:10:34;3.47;;;1.22;;
27305;SDS011;14792;50.886;6.468;2024-03-02T08:13:35;2.72;;;1.02;;
27305;SDS011;14792;50.886;6.468;2024-03-02T08:16:37;3.65;;;1.32;;
27305;SDS011;14792;50.886;6.468;2024-03-02T08:19:38;8.50;;;4.10;;
27305;SDS011;14792;50.886;6.468;2024-03-02T08:22:40;7.47;;;4.50;;
27305;SDS011;14792;50.886;6.468;2024-03-02T08:25:42;8.55;;;4.35;;
27305;SDS011;14792;50.886;6.468;2024-03-02T08:28:43;5.20;;;3.40;;
27305;SDS011;14792;50.886;6.468;2024-03-02T08:31:45;5.30;;;3.17;;
27305;SDS011;14792;50.886;6.468;2024-03-02T08:34:46;7.80;;;4.28;;
27305;SDS011;14792;50.886;6.468;2024-03-02T08:37:48;12.03;;;7.35;;
27305;SDS011;14792;50.886;6.468;2024-03-02T08:40:50;5.15;;;2.75;;
27305;SDS011;14792;50.886;6.468;2024-03-02T08:43:54;5.58;;;1.50;;
27305;SDS011;14792;50.886;6.468;2024-03-02T08:46:55;14.15;;;10.18;;
27305;SDS011;14792;50.886;6.468;2024-03-02T08:49:57;2.83;;;1.30;;
27305;SDS011;14792;50.886;6.468;2024-03-02T08:52:58;11.85;;;7.55;;
27305;SDS011;14792;50.886;6.468;2024-03-02T08:56:00;6.20;;;1.98;;
27305;SDS011;14792;50.886;6.468;2024-03-02T08:59:01;2.52;;;1.12;;
27305;SDS011;14792;50.886;6.468;2024-03-02T09:02:03;4.47;;;1.55;;
27305;SDS011;14792;50.886;6.468;2024-03-02T09:05:05;5.03;;;1.20;;
27305;SDS011;14792;50.886;6.468;2024-03-02T09:08:06;6.78;;;1.02;;
27305;SDS011;14792;50.886;6.468;2024-03-02T09:11:08;8.45;;;2.77;;
27305;SDS011;14792;50.886;6.468;2024-03-02T09:14:09;4.65;;;1.85;;
27305;SDS011;14792;50.886;6.468;2024-03-02T09:17:11;5.80;;;0.78;;
27305;SDS011;14792;50.886;6.468;2024-03-02T09:20:13;1.98;;;0.98;;
27305;SDS011;14792;50.886;6.468;2024-03-02T09:23:14;3.22;;;0.98;;
27305;SDS011;14792;50.886;6.468;2024-03-02T09:26:16;2.92;;;0.70;;
27305;SDS011;14792;50.886;6.468;2024-03-02T09:29:17;3.67;;;1.80;;
27305;SDS011;14792;50.886;6.468;2024-03-02T09:32:19;7.25;;;0.88;;
27305;SDS011;14792;50.886;6.468;2024-03-02T09:35:21;4.15;;;1.27;;
27305;SDS011;14792;50.886;6.468;2024-03-02T09:38:22;3.00;;;0.80;;
27305;SDS011;14792;50.886;6.468;2024-03-02T09:41:24;2.62;;;0.60;;
27305;SDS011;14792;50.886;6.468;2024-03-02T09:44:26;1.27;;;0.78;;
27305;SDS011;14792;50.886;6.468;2024-03-02T09:47:27;6.45;;;1.47;;
27305;SDS011;14792;50.886;6.468;2024-03-02T09:50:28;2.77;;;0.82;;
27305;SDS011;14792;50.886;6.468;2024-03-02T09:53:31;4.42;;;0.90;;
27305;SDS011;14792;50.886;6.468;2024-03-02T09:56:32;2.60;;;0.70;;
27305;SDS011;14792;50.886;6.468;2024-03-02T09:59:33;4.17;;;1.05;;
27305;SDS011;14792;50.886;6.468;2024-03-02T10:02:35;1.98;;;1.20;;
27305;SDS011;14792;50.886;6.468;2024-03-02T10:05:36;7.62;;;1.15;;
27305;SDS011;14792;50.886;6.468;2024-03-02T10:08:44;5.47;;;1.10;;
27305;SDS011;14792;50.886;6.468;2024-03-02T10:11:46;1.65;;;0.72;;
27305;SDS011;14792;50.886;6.468;2024-03-02T10:14:47;5.12;;;1.30;;
27305;SDS011;14792;50.886;6.468;2024-03-02T10:17:52;2.50;;;0.88;;
27305;SDS011;14792;50.886;6.468;2024-03-02T10:20:53;3.30;;;0.90;;
27305;SDS011;14792;50.886;6.468;2024-03-02T10:23:56;2.33;;;1.17;;
27305;SDS011;14792;50.886;6.468;2024-03-02T10:26:57;4.40;;;1.27;;
27305;SDS011;14792;50.886;6.468;2024-03-02T10:29:58;2.30;;;0.82;;
27305;SDS011;14792;50.886;6.468;2024-03-02T10:33:03;5.33;;;1.12;;
27305;SDS011;14792;50.886;6.468;2024-03-02T10:36:01;4.92;;;1.62;;
27305;SDS011;14792;50.886;6.468;2024-03-02T10:39:03;2.22;;;0.90;;
27305;SDS011;14792;50.886;6.468;2024-03-02T10:42:05;2.35;;;1.25;;
27305;SDS011;14792;50.886;6.468;2024-03-02T10:45:09;2.98;;;1.02;;
27305;SDS011;14792;50.886;6.468;2024-03-02T10:48:11;4.53;;;1.02;;
27305;SDS011;14792;50.886;6.468;2024-03-02T10:51:12;4.37;;;0.80;;
27305;SDS011;14792;50.886;6.468;2024-03-02T10:54:14;1.87;;;0.72;;
27305;SDS011;14792;50.886;6.468;2024-03-02T10:57:15;2.00;;;0.70;;
27305;SDS011;14792;50.886;6.468;2024-03-02T11:00:17;1.52;;;0.85;;
27305;SDS011;14792;50.886;6.468;2024-03-02T11:03:18;3.12;;;1.15;;
27305;SDS011;14792;50.886;6.468;2024-03-02T11:06:20;7.17;;;1.27;;
27305;SDS011;14792;50.886;6.468;2024-03-02T11:09:22;3.05;;;0.75;;
27305;SDS011;14792;50.886;6.468;2024-03-02T11:12:29;6.92;;;0.95;;
27305;SDS011;14792;50.886;6.468;2024-03-02T11:15:31;3.30;;;0.85;;
27305;SDS011;14792;50.886;6.468;2024-03-02T11:18:32;3.37;;;0.88;;
27305;SDS011;14792;50.886;6.468;2024-03-02T11:21:34;3.37;;;0.75;;
27305;SDS011;14792;50.886;6.468;2024-03-02T11:24:36;5.08;;;1.00;;
27305;SDS011;14792;50.886;6.468;2024-03-02T11:33:49;2.50;;;0.88;;
27305;SDS011;14792;50.886;6.468;2024-03-02T11:36:51;5.25;;;1.40;;
27305;SDS011;14792;50.886;6.468;2024-03-02T11:39:52;3.87;;;1.15;;
27305;SDS011;14792;50.886;6.468;2024-03-02T11:42:54;2.52;;;1.17;;
27305;SDS011;14792;50.886;6.468;2024-03-02T11:46:03;2.95;;;1.35;;
27305;SDS011;14792;50.886;6.468;2024-03-02T11:49:00;4.78;;;1.15;;
27305;SDS011;14792;50.886;6.468;2024-03-02T11:52:01;3.72;;;1.00;;
27305;SDS011;14792;50.886;6.468;2024-03-02T11:55:03;2.67;;;0.90;;
27305;SDS011;14792;50.886;6.468;2024-03-02T11:58:05;2.33;;;0.88;;
27305;SDS011;14792;50.886;6.468;2024-03-02T12:01:06;2.67;;;0.80;;
27305;SDS011;14792;50.886;6.468;2024-03-02T12:04:08;3.95;;;0.85;;
27305;SDS011;14792;50.886;6.468;2024-03-02T12:07:09;1.62;;;0.82;;
27305;SDS011;14792;50.886;6.468;2024-03-02T12:10:11;3.87;;;1.70;;
27305;SDS011;14792;50.886;6.468;2024-03-02T12:13:12;2.47;;;0.80;;
27305;SDS011;14792;50.886;6.468;2024-03-02T12:16:22;5.53;;;0.90;;
27305;SDS011;14792;50.886;6.468;2024-03-02T12:19:16;3.98;;;0.93;;
27305;SDS011;14792;50.886;6.468;2024-03-02T12:22:17;1.22;;;0.72;;
27305;SDS011;14792;50.886;6.468;2024-03-02T12:25:19;4.22;;;0.88;;
27305;SDS011;14792;50.886;6.468;2024-03-02T12:28:21;2.37;;;0.82;;
27305;SDS011;14792;50.886;6.468;2024-03-02T12:31:23;3.47;;;0.80;;
27305;SDS011;14792;50.886;6.468;2024-03-02T12:34:24;3.10;;;0.90;;
27305;SDS011;14792;50.886;6.468;2024-03-02T12:37:26;5.10;;;1.60;;
27305;SDS011;14792;50.886;6.468;2024-03-02T12:40:27;2.50;;;1.12;;
27305;SDS011;14792;50.886;6.468;2024-03-02T12:43:30;3.17;;;1.00;;
27305;SDS011;14792;50.886;6.468;2024-03-02T12:46:37;2.20;;;0.88;;
27305;SDS011;14792;50.886;6.468;2024-03-02T12:49:35;2.62;;;1.10;;
27305;SDS011;14792;50.886;6.468;2024-03-02T12:52:36;2.60;;;0.78;;
27305;SDS011;14792;50.886;6.468;2024-03-02T12:55:38;3.65;;;0.80;;
27305;SDS011;14792;50.886;6.468;2024-03-02T12:58:40;3.45;;;1.05;;
27305;SDS011;14792;50.886;6.468;2024-03-02T13:01:50;3.02;;;1.12;;
27305;SDS011;14792;50.886;6.468;2024-03-02T13:04:54;2.80;;;0.90;;
27305;SDS011;14792;50.886;6.468;2024-03-02T13:07:55;3.85;;;1.00;;
27305;SDS011;14792;50.886;6.468;2024-03-02T13:10:57;3.05;;;0.88;;
27305;SDS011;14792;50.886;6.468;2024-03-02T13:14:00;1.70;;;0.95;;
27305;SDS011;14792;50.886;6.468;2024-03-02T13:17:00;4.72;;;1.00;;
27305;SDS011;14792;50.886;6.468;2024-03-02T13:20:02;2.00;;;0.95;;
27305;SDS011;14792;50.886;6.468;2024-03-02T13:23:03;1.70;;;0.78;;
27305;SDS011;14792;50.886;6.468;2024-03-02T13:26:05;2.77;;;0.80;;
27305;SDS011;14792;50.886;6.468;2024-03-02T13:29:06;1.20;;;0.53;;
27305;SDS011;14792;50.886;6.468;2024-03-02T13:32:11;2.58;;;1.20;;
27305;SDS011;14792;50.886;6.468;2024-03-02T13:35:09;1.15;;;0.65;;
27305;SDS011;14792;50.886;6.468;2024-03-02T13:38:11;2.12;;;0.85;;
27305;SDS011;14792;50.886;6.468;2024-03-02T13:41:13;1.45;;;0.90;;
27305;SDS011;14792;50.886;6.468;2024-03-02T13:44:17;2.10;;;0.90;;
27305;SDS011;14792;50.886;6.468;2024-03-02T13:47:16;2.25;;;1.02;;
27305;SDS011;14792;50.886;6.468;2024-03-02T13:50:17;1.62;;;0.95;;
27305;SDS011;14792;50.886;6.468;2024-03-02T13:53:19;1.95;;;1.10;;
27305;SDS011;14792;50.886;6.468;2024-03-02T13:56:21;6.53;;;1.10;;
27305;SDS011;14792;50.886;6.468;2024-03-02T13:59:22;3.70;;;0.95;;
27305;SDS011;14792;50.886;6.468;2024-03-02T14:02:24;1.52;;;0.82;;
27305;SDS011;14792;50.886;6.468;2024-03-02T14:05:25;2.30;;;0.95;;
27305;SDS011;14792;50.886;6.468;2024-03-02T14:08:27;1.77;;;0.80;;
27305;SDS011;14792;50.886;6.468;2024-03-02T14:11:28;5.67;;;0.60;;
27305;SDS011;14792;50.886;6.468;2024-03-02T14:14:30;3.40;;;0.72;;
27305;SDS011;14792;50.886;6.468;2024-03-02T14:17:32;3.17;;;0.90;;
27305;SDS011;14792;50.886;6.468;2024-03-02T14:20:33;2.30;;;0.78;;
27305;SDS011;14792;50.886;6.468;2024-03-02T14:23:35;2.08;;;0.85;;
27305;SDS011;14792;50.886;6.468;2024-03-02T14:26:36;2.45;;;0.65;;
27305;SDS011;14792;50.886;6.468;2024-03-02T14:29:38;2.90;;;1.10;;
27305;SDS011;14792;50.886;6.468;2024-03-02T14:32:40;2.05;;;0.90;;
27305;SDS011;14792;50.886;6.468;2024-03-02T14:35:41;1.67;;;0.70;;
27305;SDS011;14792;50.886;6.468;2024-03-02T14:38:43;2.37;;;0.80;;
27305;SDS011;14792;50.886;6.468;2024-03-02T14:41:44;2.30;;;1.05;;
27305;SDS011;14792;50.886;6.468;2024-03-02T14:44:46;0.80;;;0.50;;
27305;SDS011;14792;50.886;6.468;2024-03-02T14:47:48;1.62;;;1.10;;
27305;SDS011;14792;50.886;6.468;2024-03-02T14:50:49;12.10;;;1.75;;
27305;SDS011;14792;50.886;6.468;2024-03-02T14:53:51;5.58;;;1.52;;
27305;SDS011;14792;50.886;6.468;2024-03-02T14:56:52;4.62;;;1.90;;
27305;SDS011;14792;50.886;6.468;2024-03-02T14:59:54;3.58;;;1.55;;
27305;SDS011;14792;50.886;6.468;2024-03-02T15:02:56;5.15;;;2.20;;
27305;SDS011;14792;50.886;6.468;2024-03-02T15:05:57;4.15;;;2.10;;
27305;SDS011;14792;50.886;6.468;2024-03-02T15:08:59;2.83;;;1.60;;
27305;SDS011;14792;50.886;6.468;2024-03-02T15:12:00;4.03;;;1.65;;
27305;SDS011;14792;50.886;6.468;2024-03-02T15:15:02;4.37;;;1.90;;
27305;SDS011;14792;50.886;6.468;2024-03-02T15:18:04;2.52;;;1.57;;
27305;SDS011;14792;50.886;6.468;2024-03-02T15:21:05;2.98;;;1.35;;
27305;SDS011;14792;50.886;6.468;2024-03-02T15:24:07;4.97;;;1.80;;
27305;SDS011;14792;50.886;6.468;2024-03-02T15:27:08;3.65;;;1.70;;
27305;SDS011;14792;50.886;6.468;2024-03-02T15:30:10;4.53;;;1.60;;
27305;SDS011;14792;50.886;6.468;2024-03-02T15:33:11;6.47;;;2.60;;
27305;SDS011;14792;50.886;6.468;2024-03-02T15:36:13;5.45;;;2.30;;
27305;SDS011;14792;50.886;6.468;2024-03-02T15:39:15;6.90;;;2.27;;
27305;SDS011;14792;50.886;6.468;2024-03-02T15:42:16;4.90;;;2.80;;
27305;SDS011;14792;50.886;6.468;2024-03-02T15:45:18;3.92;;;1.35;;
27305;SDS011;14792;50.886;6.468;2024-03-02T15:48:19;3.35;;;1.50;;
27305;SDS011;14792;50.886;6.468;2024-03-02T15:51:21;4.40;;;1.40;;
27305;SDS011;14792;50.886;6.468;2024-03-02T15:54:23;1.85;;;1.35;;
27305;SDS011;14792;50.886;6.468;2024-03-02T15:57:24;4.17;;;2.15;;
27305;SDS011;14792;50.886;6.468;2024-03-02T16:00:26;13.85;;;7.10;;
27305;SDS011;14792;50.886;6.468;2024-03-02T16:03:28;2.85;;;1.70;;
27305;SDS011;14792;50.886;6.468;2024-03-02T16:06:29;2.92;;;1.30;;
27305;SDS011;14792;50.886;6.468;2024-03-02T16:09:31;3.35;;;1.32;;
27305;SDS011;14792;50.886;6.468;2024-03-02T16:12:32;2.55;;;1.50;;
27305;SDS011;14792;50.886;6.468;2024-03-02T16:15:34;2.02;;;1.20;;
27305;SDS011;14792;50.886;6.468;2024-03-02T16:18:35;3.65;;;1.50;;
27305;SDS011;14792;50.886;6.468;2024-03-02T16:21:37;3.22;;;1.98;;
27305;SDS011;14792;50.886;6.468;2024-03-02T16:24:39;2.30;;;1.65;;
27305;SDS011;14792;50.886;6.468;2024-03-02T16:27:40;5.35;;;1.52;;
27305;SDS011;14792;50.886;6.468;2024-03-02T16:30:42;3.85;;;1.52;;
27305;SDS011;14792;50.886;6.468;2024-03-02T16:33:44;4.25;;;1.90;;
27305;SDS011;14792;50.886;6.468;2024-03-02T16:36:45;3.40;;;1.65;;
27305;SDS011;14792;50.886;6.468;2024-03-02T16:39:47;2.15;;;1.40;;
27305;SDS011;14792;50.886;6.468;2024-03-02T16:42:48;3.75;;;1.52;;
27305;SDS011;14792;50.886;6.468;2024-03-02T16:45:50;5.30;;;1.40;;
27305;SDS011;14792;50.886;6.468;2024-03-02T16:48:52;2.37;;;1.60;;
27305;SDS011;14792;50.886;6.468;2024-03-02T16:51:54;3.00;;;1.60;;
27305;SDS011;14792;50.886;6.468;2024-03-02T16:54:55;7.50;;;1.52;;
27305;SDS011;14792;50.886;6.468;2024-03-02T16:57:57;5.30;;;1.67;;
27305;SDS011;14792;50.886;6.468;2024-03-02T17:00:58;7.28;;;2.20;;
27305;SDS011;14792;50.886;6.468;2024-03-02T17:04:00;6.50;;;2.00;;
27305;SDS011;14792;50.886;6.468;2024-03-02T17:07:01;5.62;;;1.87;;
27305;SDS011;14792;50.886;6.468;2024-03-02T17:10:03;2.77;;;1.70;;
27305;SDS011;14792;50.886;6.468;2024-03-02T17:13:05;4.08;;;1.92;;
27305;SDS011;14792;50.886;6.468;2024-03-02T17:16:06;4.75;;;2.70;;
27305;SDS011;14792;50.886;6.468;2024-03-02T17:19:08;3.87;;;2.80;;
27305;SDS011;14792;50.886;6.468;2024-03-02T17:22:09;5.62;;;2.87;;
27305;SDS011;14792;50.886;6.468;2024-03-02T17:25:11;5.90;;;2.80;;
27305;SDS011;14792;50.886;6.468;2024-03-02T17:31:20;4.67;;;3.10;;
27305;SDS011;14792;50.886;6.468;2024-03-02T17:34:22;5.37;;;2.70;;
27305;SDS011;14792;50.886;6.468;2024-03-02T17:37:26;9.55;;;5.30;;
27305;SDS011;14792;50.886;6.468;2024-03-02T17:40:28;9.00;;;5.40;;
27305;SDS011;14792;50.886;6.468;2024-03-02T17:43:29;11.28;;;6.40;;
27305;SDS011;14792;50.886;6.468;2024-03-02T17:46:31;6.45;;;3.33;;
27305;SDS011;14792;50.886;6.468;2024-03-02T17:49:32;4.70;;;3.60;;
27305;SDS011;14792;50.886;6.468;2024-03-02T17:52:34;6.28;;;4.22;;
27305;SDS011;14792;50.886;6.468;2024-03-02T17:55:36;5.58;;;3.95;;
27305;SDS011;14792;50.886;6.468;2024-03-02T17:58:37;4.83;;;4.12;;
27305;SDS011;14792;50.886;6.468;2024-03-02T18:01:39;8.45;;;4.47;;
27305;SDS011;14792;50.886;6.468;2024-03-02T18:04:40;8.13;;;4.12;;
27305;SDS011;14792;50.886;6.468;2024-03-02T18:07:42;7.72;;;4.22;;
27305;SDS011;14792;50.886;6.468;2024-03-02T18:10:43;6.35;;;4.70;;
27305;SDS011;14792;50.886;6.468;2024-03-02T18:13:45;6.60;;;4.83;;
27305;SDS011;14792;50.886;6.468;2024-03-02T18:16:47;8.15;;;4.70;;
27305;SDS011;14792;50.886;6.468;2024-03-02T18:19:52;7.20;;;5.10;;
27305;SDS011;14792;50.886;6.468;2024-03-02T18:22:53;7.65;;;4.62;;